University Heights, Iowa
Current Conditions -  °F | °C
As of 3:23 AM on Thursday 27 Nov 2014 (Local Time) from KIOW Reporting Station
Overcast Overcast  
Wind Chill: 16°   Ceiling: 3200
Heat Index: 26°   Visibility: 9mi
Dew Point: 21°   Wind: 12mph
Humidity: 81%   Direction: 300°WNW
Pressure: 30.37"   Gusts: NA
Location:  41.5918°N, 91.6264°W
Report Text: KIOW 270923Z AUTO 30010KT 9SM SCT018 OVC032 M03/M06 A3037 RMK AO2 T10331061
Loading
Personal Weather Stations






























Interactive Weather Map New forecast layout! Learn more

10-Day Weather Forecast

Advertisements
Track Severe Weather on mobile